CFG8ZX EDDL-LEPA
Flight info
| Callsign | CFG8ZX |
|---|---|
| Flight time | N/A |
| Altitude | 35000 |
| Route | MODRU7Z/05R MODRU Z283 RITAX UT27 ROUSY DCT GTQ DCT POGOL DCT LASAT DCT MOROK DCT GILIR DCT GEVEA DCT INCUS DCT BALSI DCT RETNO DCT TUPOX DCT MTG DCT DIVKO DCT VATIR N852 VERSO L129 LUNIK |
| Aircraft | A321/M-SDE3FGHIRWY/LB1 |
Departure
| Time | N/A |
|---|---|
| Airport | Düsseldorf Airport (EDDL) |
Arrival
| Time | 2026-05-07 18:16 |
|---|---|
| Airport | Palma de Mallorca Airport (LEPA) |
| Time | Latitude | Longitude | Altitude | Speed | Heading |
|---|---|---|---|---|---|
| 2026-05-07 16:41 | 48.14400 | 6.68352 | 35041 ft | 450 kts | 185° |
| 2026-05-07 16:42 | 48.11257 | 6.68233 | 35047 ft | 450 kts | 185° |
| 2026-05-07 16:42 | 48.04995 | 6.67996 | 35051 ft | 450 kts | 185° |
| 2026-05-07 16:43 | 47.98770 | 6.67765 | 35036 ft | 449 kts | 185° |
| 2026-05-07 16:43 | 47.92520 | 6.67528 | 35050 ft | 449 kts | 185° |
| 2026-05-07 16:44 | 47.86269 | 6.67289 | 35038 ft | 449 kts | 185° |
| 2026-05-07 16:44 | 47.81071 | 6.67090 | 35023 ft | 449 kts | 185° |
| 2026-05-07 16:45 | 47.74828 | 6.66856 | 35032 ft | 448 kts | 185° |
| 2026-05-07 16:45 | 47.68583 | 6.66627 | 35032 ft | 448 kts | 185° |
| 2026-05-07 16:46 | 47.62342 | 6.66393 | 35032 ft | 448 kts | 185° |
| 2026-05-07 16:46 | 47.56136 | 6.66157 | 35024 ft | 448 kts | 185° |
| 2026-05-07 16:47 | 47.49901 | 6.65925 | 35029 ft | 448 kts | 185° |
| 2026-05-07 16:47 | 47.43688 | 6.65445 | 35033 ft | 444 kts | 193° |
| 2026-05-07 16:48 | 47.37932 | 6.62584 | 35029 ft | 434 kts | 212° |
| 2026-05-07 16:48 | 47.33129 | 6.57346 | 35037 ft | 429 kts | 223° |
| 2026-05-07 16:49 | 47.28585 | 6.51625 | 35049 ft | 429 kts | 223° |
| 2026-05-07 16:49 | 47.24031 | 6.45936 | 35050 ft | 429 kts | 223° |
| 2026-05-07 16:50 | 47.19475 | 6.40261 | 35034 ft | 429 kts | 223° |
| 2026-05-07 16:50 | 47.14927 | 6.34592 | 35045 ft | 428 kts | 223° |
| 2026-05-07 16:51 | 47.10388 | 6.28950 | 35051 ft | 427 kts | 222° |
| 2026-05-07 16:51 | 47.05256 | 6.24590 | 35054 ft | 435 kts | 203° |
| 2026-05-07 16:52 | 46.99241 | 6.22960 | 35031 ft | 443 kts | 189° |
| 2026-05-07 16:52 | 46.93110 | 6.22161 | 35036 ft | 442 kts | 189° |
| 2026-05-07 16:53 | 46.86968 | 6.21333 | 35037 ft | 442 kts | 189° |
| 2026-05-07 16:53 | 46.80826 | 6.20510 | 35039 ft | 442 kts | 189° |
| 2026-05-07 16:54 | 46.74699 | 6.19696 | 35033 ft | 442 kts | 190° |
| 2026-05-07 16:54 | 46.68608 | 6.18894 | 35042 ft | 441 kts | 190° |
| 2026-05-07 16:55 | 46.62482 | 6.18090 | 35037 ft | 441 kts | 190° |
| 2026-05-07 16:55 | 46.56363 | 6.17277 | 35028 ft | 441 kts | 190° |
| 2026-05-07 16:56 | 46.50257 | 6.16466 | 35022 ft | 440 kts | 190° |
| 2026-05-07 16:56 | 46.41125 | 6.15278 | 35019 ft | 440 kts | 190° |
| 2026-05-07 16:57 | 46.35022 | 6.14475 | 35007 ft | 439 kts | 190° |
| 2026-05-07 16:57 | 46.28929 | 6.13684 | 35013 ft | 439 kts | 190° |
| 2026-05-07 16:58 | 46.22859 | 6.12822 | 35015 ft | 437 kts | 192° |
| 2026-05-07 16:58 | 46.16860 | 6.11493 | 35011 ft | 435 kts | 194° |
| 2026-05-07 16:59 | 46.10940 | 6.10023 | 35010 ft | 434 kts | 194° |
| 2026-05-07 16:59 | 46.04961 | 6.08637 | 34985 ft | 434 kts | 193° |
| 2026-05-07 17:00 | 45.98999 | 6.07338 | 34962 ft | 433 kts | 193° |
| 2026-05-07 17:00 | 45.93030 | 6.06044 | 34973 ft | 433 kts | 193° |
| 2026-05-07 17:01 | 45.87080 | 6.04735 | 34979 ft | 432 kts | 193° |
| 2026-05-07 17:01 | 45.81134 | 6.03417 | 34970 ft | 432 kts | 193° |
| 2026-05-07 17:02 | 45.75187 | 6.02109 | 34977 ft | 432 kts | 193° |
| 2026-05-07 17:02 | 45.69246 | 6.00800 | 34982 ft | 431 kts | 193° |
| 2026-05-07 17:03 | 45.63314 | 5.99489 | 34984 ft | 431 kts | 193° |
| 2026-05-07 17:03 | 45.57421 | 5.98188 | 34981 ft | 431 kts | 193° |
| 2026-05-07 17:04 | 45.51499 | 5.96886 | 34982 ft | 430 kts | 193° |
| 2026-05-07 17:04 | 45.45591 | 5.95536 | 34982 ft | 429 kts | 195° |
| 2026-05-07 17:05 | 45.39759 | 5.93760 | 34965 ft | 427 kts | 197° |
| 2026-05-07 17:05 | 45.34016 | 5.91821 | 34970 ft | 426 kts | 197° |
| 2026-05-07 17:06 | 45.28233 | 5.89944 | 34978 ft | 426 kts | 197° |
| 2026-05-07 17:06 | 45.22435 | 5.88152 | 34971 ft | 427 kts | 196° |
| 2026-05-07 17:07 | 45.16633 | 5.86379 | 34972 ft | 426 kts | 196° |
| 2026-05-07 17:07 | 45.10845 | 5.84594 | 34972 ft | 426 kts | 196° |
| 2026-05-07 17:08 | 45.05059 | 5.82804 | 34974 ft | 425 kts | 197° |
| 2026-05-07 17:08 | 44.99275 | 5.81008 | 34963 ft | 425 kts | 197° |
| 2026-05-07 17:09 | 44.93490 | 5.79224 | 34969 ft | 424 kts | 196° |
| 2026-05-07 17:09 | 44.87758 | 5.77470 | 34968 ft | 424 kts | 196° |
| 2026-05-07 17:10 | 44.81979 | 5.75711 | 34955 ft | 424 kts | 197° |
| 2026-05-07 17:10 | 44.76213 | 5.73946 | 34958 ft | 423 kts | 197° |
| 2026-05-07 17:11 | 44.70464 | 5.72194 | 34955 ft | 422 kts | 197° |
| 2026-05-07 17:11 | 44.64738 | 5.70453 | 34964 ft | 423 kts | 197° |
| 2026-05-07 17:12 | 44.58993 | 5.68702 | 34963 ft | 422 kts | 196° |
| 2026-05-07 17:12 | 44.53230 | 5.66954 | 34956 ft | 422 kts | 196° |
| 2026-05-07 17:13 | 44.47474 | 5.65215 | 34938 ft | 422 kts | 197° |
| 2026-05-07 17:13 | 44.41721 | 5.63470 | 34942 ft | 422 kts | 197° |
| 2026-05-07 17:14 | 44.36086 | 5.61309 | 34957 ft | 417 kts | 205° |
| 2026-05-07 17:14 | 44.30726 | 5.58359 | 34950 ft | 416 kts | 205° |
| 2026-05-07 17:15 | 44.25320 | 5.55399 | 34943 ft | 416 kts | 206° |
| 2026-05-07 17:15 | 44.19944 | 5.52456 | 34959 ft | 414 kts | 206° |
| 2026-05-07 17:16 | 44.14560 | 5.49525 | 34960 ft | 414 kts | 206° |
| 2026-05-07 17:16 | 44.09202 | 5.46610 | 34941 ft | 413 kts | 206° |
| 2026-05-07 17:17 | 44.03886 | 5.43722 | 34956 ft | 412 kts | 206° |
| 2026-05-07 17:17 | 43.98535 | 5.40823 | 34957 ft | 411 kts | 206° |
| 2026-05-07 17:18 | 43.93233 | 5.37950 | 34959 ft | 410 kts | 206° |
| 2026-05-07 17:18 | 43.87903 | 5.35057 | 34951 ft | 409 kts | 206° |
| 2026-05-07 17:19 | 43.82604 | 5.32195 | 34982 ft | 408 kts | 206° |
| 2026-05-07 17:19 | 43.77308 | 5.29353 | 34986 ft | 407 kts | 206° |
| 2026-05-07 17:20 | 43.72024 | 5.26514 | 34985 ft | 407 kts | 206° |
| 2026-05-07 17:20 | 43.66756 | 5.23687 | 34983 ft | 405 kts | 206° |
| 2026-05-07 17:21 | 43.61537 | 5.20894 | 34991 ft | 404 kts | 206° |
| 2026-05-07 17:21 | 43.56303 | 5.18099 | 34986 ft | 403 kts | 206° |
| 2026-05-07 17:22 | 43.51067 | 5.15302 | 34976 ft | 402 kts | 206° |
| 2026-05-07 17:22 | 43.45852 | 5.12517 | 34983 ft | 401 kts | 206° |
| 2026-05-07 17:23 | 43.40645 | 5.09749 | 34983 ft | 400 kts | 206° |
| 2026-05-07 17:23 | 43.36606 | 5.06776 | 34980 ft | 393 kts | 218° |
| 2026-05-07 17:24 | 43.32096 | 5.02512 | 34976 ft | 393 kts | 218° |
| 2026-05-07 17:24 | 43.27584 | 4.98262 | 34962 ft | 392 kts | 217° |
| 2026-05-07 17:25 | 43.23095 | 4.94058 | 34981 ft | 392 kts | 218° |
| 2026-05-07 17:25 | 43.18591 | 4.89827 | 34981 ft | 392 kts | 218° |
| 2026-05-07 17:26 | 43.14100 | 4.85608 | 34974 ft | 391 kts | 218° |
| 2026-05-07 17:26 | 43.09593 | 4.81389 | 34956 ft | 391 kts | 217° |
| 2026-05-07 17:27 | 43.05069 | 4.77267 | 34956 ft | 393 kts | 213° |
| 2026-05-07 17:27 | 43.00284 | 4.73634 | 34956 ft | 393 kts | 212° |
| 2026-05-07 17:28 | 42.95496 | 4.70009 | 34960 ft | 393 kts | 212° |
| 2026-05-07 17:28 | 42.90704 | 4.66388 | 34953 ft | 393 kts | 212° |
| 2026-05-07 17:29 | 42.85944 | 4.62789 | 34959 ft | 393 kts | 212° |
| 2026-05-07 17:29 | 42.81144 | 4.59165 | 34956 ft | 393 kts | 212° |
| 2026-05-07 17:30 | 42.76360 | 4.55559 | 34980 ft | 393 kts | 212° |
| 2026-05-07 17:30 | 42.71581 | 4.51968 | 34979 ft | 392 kts | 212° |
| 2026-05-07 17:31 | 42.66838 | 4.48402 | 34984 ft | 392 kts | 212° |
| 2026-05-07 17:31 | 42.62070 | 4.44831 | 34981 ft | 392 kts | 212° |
| 2026-05-07 17:32 | 42.57285 | 4.41253 | 34975 ft | 392 kts | 212° |
| 2026-05-07 17:32 | 42.52500 | 4.37692 | 34960 ft | 392 kts | 212° |
| 2026-05-07 17:33 | 42.47706 | 4.34127 | 34965 ft | 392 kts | 212° |
| 2026-05-07 17:33 | 42.42905 | 4.30557 | 34971 ft | 393 kts | 212° |
| 2026-05-07 17:34 | 42.38139 | 4.27018 | 34974 ft | 393 kts | 211° |
| 2026-05-07 17:34 | 42.33340 | 4.23460 | 34980 ft | 393 kts | 212° |
| 2026-05-07 17:35 | 42.28535 | 4.19906 | 34970 ft | 393 kts | 211° |
| 2026-05-07 17:35 | 42.23730 | 4.16354 | 34993 ft | 393 kts | 211° |
| 2026-05-07 17:36 | 42.18938 | 4.12815 | 34991 ft | 392 kts | 211° |
| 2026-05-07 17:36 | 42.14139 | 4.09287 | 34988 ft | 392 kts | 211° |
| 2026-05-07 17:37 | 42.09341 | 4.05774 | 34969 ft | 392 kts | 211° |
| 2026-05-07 17:37 | 42.04538 | 4.02257 | 34969 ft | 392 kts | 211° |
| 2026-05-07 17:38 | 41.99740 | 3.98750 | 34972 ft | 393 kts | 211° |
| 2026-05-07 17:38 | 41.94958 | 3.95251 | 34969 ft | 392 kts | 211° |
| 2026-05-07 17:39 | 41.89802 | 3.92751 | 34958 ft | 399 kts | 194° |
| 2026-05-07 17:39 | 41.84309 | 3.91501 | 34962 ft | 400 kts | 194° |
| 2026-05-07 17:40 | 41.78855 | 3.90245 | 34959 ft | 400 kts | 194° |
| 2026-05-07 17:40 | 41.73365 | 3.88980 | 34963 ft | 400 kts | 194° |
| 2026-05-07 17:41 | 41.67882 | 3.87709 | 34957 ft | 400 kts | 194° |
| 2026-05-07 17:41 | 41.62398 | 3.86444 | 34960 ft | 400 kts | 194° |
| 2026-05-07 17:42 | 41.56907 | 3.85192 | 34960 ft | 400 kts | 193° |
| 2026-05-07 17:42 | 41.51416 | 3.83936 | 34962 ft | 400 kts | 194° |
| 2026-05-07 17:43 | 41.45932 | 3.82679 | 34958 ft | 399 kts | 193° |
| 2026-05-07 17:43 | 41.40456 | 3.81427 | 34963 ft | 399 kts | 193° |
| 2026-05-07 17:44 | 41.34984 | 3.80177 | 34990 ft | 399 kts | 193° |
| 2026-05-07 17:44 | 41.29549 | 3.78932 | 34984 ft | 398 kts | 194° |
| 2026-05-07 17:45 | 41.24077 | 3.77681 | 34976 ft | 398 kts | 193° |
| 2026-05-07 17:45 | 41.18606 | 3.76441 | 34976 ft | 398 kts | 193° |
| 2026-05-07 17:46 | 41.13276 | 3.74657 | 34970 ft | 393 kts | 204° |
| 2026-05-07 17:46 | 41.08162 | 3.72002 | 34965 ft | 393 kts | 204° |
| 2026-05-07 17:47 | 41.03082 | 3.69393 | 34950 ft | 394 kts | 203° |
| 2026-05-07 17:47 | 40.97958 | 3.66761 | 34946 ft | 395 kts | 203° |
| 2026-05-07 17:48 | 40.92835 | 3.64122 | 34948 ft | 395 kts | 203° |
| 2026-05-07 17:48 | 40.87710 | 3.61492 | 34951 ft | 396 kts | 203° |
| 2026-05-07 17:49 | 40.82575 | 3.58864 | 34940 ft | 396 kts | 203° |
| 2026-05-07 17:49 | 40.77446 | 3.56245 | 34944 ft | 397 kts | 203° |
| 2026-05-07 17:50 | 40.72279 | 3.53610 | 34945 ft | 397 kts | 203° |
| 2026-05-07 17:50 | 40.67122 | 3.50988 | 34950 ft | 398 kts | 203° |
| 2026-05-07 17:51 | 40.61960 | 3.48363 | 34955 ft | 398 kts | 203° |
| 2026-05-07 17:51 | 40.59371 | 3.47044 | 34755 ft | 398 kts | 203° |
| 2026-05-07 17:51 | 40.56792 | 3.45733 | 34518 ft | 397 kts | 203° |
| 2026-05-07 17:52 | 40.54212 | 3.44426 | 34286 ft | 397 kts | 203° |
| 2026-05-07 17:52 | 40.51639 | 3.43127 | 34053 ft | 396 kts | 203° |
| 2026-05-07 17:52 | 40.49069 | 3.41829 | 33795 ft | 396 kts | 203° |
| 2026-05-07 17:52 | 40.46492 | 3.40541 | 33520 ft | 397 kts | 201° |
| 2026-05-07 17:53 | 40.43806 | 3.39649 | 33244 ft | 401 kts | 192° |
| 2026-05-07 17:53 | 40.41004 | 3.39414 | 32956 ft | 408 kts | 182° |
| 2026-05-07 17:53 | 40.38150 | 3.39585 | 32682 ft | 412 kts | 181° |
| 2026-05-07 17:53 | 40.35280 | 3.39755 | 32427 ft | 414 kts | 181° |
| 2026-05-07 17:54 | 40.32398 | 3.39867 | 31960 ft | 412 kts | 186° |
| 2026-05-07 17:54 | 40.29546 | 3.39371 | 30847 ft | 417 kts | 193° |
| 2026-05-07 17:54 | 40.26664 | 3.38706 | 29713 ft | 424 kts | 193° |
| 2026-05-07 17:54 | 40.23735 | 3.38012 | 28447 ft | 430 kts | 192° |
| 2026-05-07 17:55 | 40.20804 | 3.37317 | 27239 ft | 436 kts | 192° |
| 2026-05-07 17:55 | 40.17802 | 3.36610 | 26043 ft | 442 kts | 191° |
| 2026-05-07 17:55 | 40.14754 | 3.35899 | 24890 ft | 447 kts | 191° |
| 2026-05-07 17:55 | 40.11680 | 3.35185 | 23775 ft | 451 kts | 190° |
| 2026-05-07 17:56 | 40.08571 | 3.34467 | 22508 ft | 455 kts | 190° |
| 2026-05-07 17:56 | 40.05513 | 3.33764 | 21057 ft | 441 kts | 189° |
| 2026-05-07 17:56 | 40.02471 | 3.33076 | 20061 ft | 443 kts | 189° |
| 2026-05-07 17:56 | 39.99464 | 3.32396 | 19547 ft | 432 kts | 188° |
| 2026-05-07 17:57 | 39.96519 | 3.31727 | 18774 ft | 428 kts | 189° |
| 2026-05-07 17:57 | 39.94539 | 3.31277 | 18281 ft | 425 kts | 189° |
| 2026-05-07 17:57 | 39.90708 | 3.30402 | 17384 ft | 416 kts | 189° |
| 2026-05-07 17:57 | 39.87923 | 3.29762 | 17245 ft | 396 kts | 189° |
| 2026-05-07 17:58 | 39.85252 | 3.29150 | 16906 ft | 383 kts | 188° |
| 2026-05-07 17:58 | 39.82699 | 3.28566 | 16941 ft | 362 kts | 188° |
| 2026-05-07 17:58 | 39.80285 | 3.28015 | 16939 ft | 344 kts | 188° |
| 2026-05-07 17:58 | 39.77988 | 3.27492 | 16940 ft | 327 kts | 188° |
| 2026-05-07 17:59 | 39.75804 | 3.26996 | 16937 ft | 310 kts | 189° |
| 2026-05-07 17:59 | 39.73729 | 3.26524 | 16938 ft | 295 kts | 189° |
| 2026-05-07 17:59 | 39.71753 | 3.26074 | 16937 ft | 280 kts | 190° |
| 2026-05-07 17:59 | 39.69859 | 3.25644 | 16940 ft | 274 kts | 189° |
| 2026-05-07 18:00 | 39.67987 | 3.25220 | 16941 ft | 271 kts | 189° |
| 2026-05-07 18:00 | 39.66144 | 3.24805 | 16940 ft | 271 kts | 190° |
| 2026-05-07 18:00 | 39.64308 | 3.24120 | 16915 ft | 274 kts | 202° |
| 2026-05-07 18:00 | 39.62638 | 3.22871 | 16248 ft | 286 kts | 217° |
| 2026-05-07 18:01 | 39.61214 | 3.20973 | 15471 ft | 302 kts | 231° |
| 2026-05-07 18:01 | 39.60149 | 3.18533 | 14671 ft | 318 kts | 242° |
| 2026-05-07 18:01 | 39.59149 | 3.15903 | 13854 ft | 333 kts | 241° |
| 2026-05-07 18:01 | 39.58095 | 3.13167 | 12915 ft | 346 kts | 241° |
| 2026-05-07 18:02 | 39.56282 | 3.08500 | 11657 ft | 344 kts | 241° |
| 2026-05-07 18:02 | 39.55218 | 3.05765 | 11110 ft | 335 kts | 241° |
| 2026-05-07 18:02 | 39.54184 | 3.03105 | 10563 ft | 326 kts | 241° |
| 2026-05-07 18:03 | 39.53192 | 3.00549 | 10047 ft | 315 kts | 241° |
| 2026-05-07 18:03 | 39.52197 | 2.97995 | 9488 ft | 318 kts | 241° |
| 2026-05-07 18:03 | 39.51197 | 2.95440 | 8948 ft | 319 kts | 242° |
| 2026-05-07 18:03 | 39.50194 | 2.92878 | 8474 ft | 318 kts | 241° |
| 2026-05-07 18:04 | 39.49195 | 2.90324 | 7962 ft | 319 kts | 241° |
| 2026-05-07 18:04 | 39.48192 | 2.87761 | 7443 ft | 319 kts | 242° |
| 2026-05-07 18:04 | 39.47198 | 2.85192 | 6927 ft | 320 kts | 244° |
| 2026-05-07 18:04 | 39.46442 | 2.82485 | 6428 ft | 320 kts | 252° |
| 2026-05-07 18:05 | 39.45785 | 2.79738 | 5934 ft | 319 kts | 252° |
| 2026-05-07 18:05 | 39.45134 | 2.76989 | 5416 ft | 318 kts | 252° |
| 2026-05-07 18:05 | 39.44483 | 2.74254 | 4845 ft | 318 kts | 252° |
| 2026-05-07 18:05 | 39.43834 | 2.71525 | 4114 ft | 314 kts | 252° |
| 2026-05-07 18:06 | 39.43212 | 2.68881 | 3382 ft | 301 kts | 252° |
| 2026-05-07 18:06 | 39.42634 | 2.66389 | 3085 ft | 275 kts | 253° |
| 2026-05-07 18:06 | 39.42089 | 2.64153 | 3005 ft | 249 kts | 252° |
| 2026-05-07 18:06 | 39.41567 | 2.62043 | 3007 ft | 244 kts | 252° |
| 2026-05-07 18:07 | 39.41051 | 2.59958 | 3044 ft | 243 kts | 252° |
| 2026-05-07 18:07 | 39.40537 | 2.57879 | 3009 ft | 242 kts | 252° |
| 2026-05-07 18:07 | 39.40026 | 2.55801 | 3007 ft | 244 kts | 252° |
| 2026-05-07 18:07 | 39.39513 | 2.53742 | 3006 ft | 243 kts | 252° |
| 2026-05-07 18:08 | 39.38990 | 2.51652 | 3007 ft | 245 kts | 252° |
| 2026-05-07 18:08 | 39.38464 | 2.49557 | 3009 ft | 244 kts | 252° |
| 2026-05-07 18:08 | 39.37941 | 2.47470 | 3008 ft | 244 kts | 252° |
| 2026-05-07 18:08 | 39.37573 | 2.45346 | 2998 ft | 243 kts | 272° |
| 2026-05-07 18:09 | 39.38015 | 2.43293 | 3007 ft | 237 kts | 304° |
| 2026-05-07 18:09 | 39.39239 | 2.41972 | 3005 ft | 229 kts | 344° |
| 2026-05-07 18:09 | 39.40765 | 2.42005 | 3007 ft | 218 kts | 25° |
| 2026-05-07 18:09 | 39.41776 | 2.43254 | 3003 ft | 195 kts | 66° |
| 2026-05-07 18:10 | 39.42239 | 2.44826 | 3027 ft | 183 kts | 63° |
| 2026-05-07 18:10 | 39.42888 | 2.46222 | 3015 ft | 179 kts | 58° |
| 2026-05-07 18:10 | 39.43544 | 2.47582 | 3023 ft | 176 kts | 59° |
| 2026-05-07 18:10 | 39.44193 | 2.48937 | 3015 ft | 178 kts | 59° |
| 2026-05-07 18:11 | 39.44840 | 2.50291 | 3013 ft | 176 kts | 59° |
| 2026-05-07 18:11 | 39.45486 | 2.51646 | 3013 ft | 178 kts | 59° |
| 2026-05-07 18:11 | 39.46136 | 2.53010 | 3012 ft | 177 kts | 59° |
| 2026-05-07 18:11 | 39.46742 | 2.54280 | 2930 ft | 153 kts | 59° |
| 2026-05-07 18:12 | 39.47276 | 2.55401 | 2785 ft | 142 kts | 60° |
| 2026-05-07 18:12 | 39.47780 | 2.56462 | 2616 ft | 136 kts | 59° |
| 2026-05-07 18:12 | 39.48270 | 2.57493 | 2450 ft | 134 kts | 60° |
| 2026-05-07 18:12 | 39.48755 | 2.58513 | 2277 ft | 132 kts | 60° |
| 2026-05-07 18:13 | 39.49237 | 2.59526 | 2100 ft | 132 kts | 59° |
| 2026-05-07 18:13 | 39.49718 | 2.60538 | 1916 ft | 132 kts | 59° |
| 2026-05-07 18:13 | 39.50196 | 2.61545 | 1749 ft | 131 kts | 58° |
| 2026-05-07 18:13 | 39.50675 | 2.62553 | 1573 ft | 131 kts | 58° |
| 2026-05-07 18:14 | 39.51151 | 2.63555 | 1393 ft | 131 kts | 57° |
| 2026-05-07 18:14 | 39.51626 | 2.64557 | 1220 ft | 129 kts | 57° |
| 2026-05-07 18:14 | 39.52102 | 2.65560 | 1034 ft | 131 kts | 58° |
| 2026-05-07 18:14 | 39.52580 | 2.66567 | 854 ft | 131 kts | 59° |
| 2026-05-07 18:15 | 39.53061 | 2.67581 | 683 ft | 131 kts | 58° |
| 2026-05-07 18:15 | 39.53525 | 2.68577 | 516 ft | 132 kts | 57° |
| 2026-05-07 18:15 | 39.54024 | 2.69638 | 328 ft | 141 kts | 56° |
| 2026-05-07 18:15 | 39.54552 | 2.70711 | 139 ft | 138 kts | 57° |
| 2026-05-07 18:16 | 39.55019 | 2.71705 | 37 ft | 110 kts | 60° |
| 2026-05-07 18:16 | 39.55299 | 2.72304 | 38 ft | 51 kts | 58° |
| 2026-05-07 18:16 | 39.55393 | 2.72502 | 37 ft | 1 kts | 58° |
| 2026-05-07 18:16 | 39.55411 | 2.72540 | 38 ft | 12 kts | 58° |
| 2026-05-07 18:17 | 39.55470 | 2.72682 | 38 ft | 21 kts | 70° |
| 2026-05-07 18:17 | 39.55497 | 2.72865 | 38 ft | 17 kts | 91° |
| 2026-05-07 18:17 | 39.55498 | 2.73021 | 38 ft | 17 kts | 88° |
| 2026-05-07 18:17 | 39.55498 | 2.73031 | 38 ft | 0 kts | 89° |
| 2026-05-07 18:18 | 39.55498 | 2.73030 | 38 ft | 0 kts | 89° |